createdAt,value
2022-10-28T00:00:11.579Z,19.92
2022-10-28T00:02:40.825Z,19.92
2022-10-28T00:05:07.720Z,19.91
2022-10-28T00:07:34.310Z,19.91
2022-10-28T00:10:00.899Z,19.91
2022-10-28T00:12:27.576Z,19.90
2022-10-28T00:14:54.148Z,19.91
2022-10-28T00:17:20.745Z,19.90
2022-10-28T00:19:47.405Z,19.90
2022-10-28T00:22:14.094Z,19.90
2022-10-28T00:24:40.775Z,19.90
2022-10-28T00:27:07.320Z,19.89
2022-10-28T00:29:33.865Z,19.89
2022-10-28T00:32:00.416Z,19.88
2022-10-28T00:34:27.030Z,19.89
2022-10-28T00:36:53.738Z,19.89
2022-10-28T00:39:22.990Z,19.89
2022-10-28T00:41:51.482Z,19.88
2022-10-28T00:44:43.595Z,19.87
2022-10-28T00:47:17.727Z,19.87
2022-10-28T00:49:45.369Z,19.86
2022-10-28T00:52:15.642Z,19.86
2022-10-28T00:54:42.200Z,19.86
2022-10-28T00:57:11.006Z,19.86
2022-10-28T00:59:38.879Z,19.86
2022-10-28T01:02:05.829Z,19.86
2022-10-28T01:04:32.500Z,19.85
2022-10-28T01:06:59.365Z,19.85
2022-10-28T01:12:22.587Z,19.85
2022-10-28T01:14:55.241Z,19.84
2022-10-28T01:17:24.586Z,19.84
2022-10-28T01:20:18.858Z,19.84
2022-10-28T01:23:03.606Z,19.83
2022-10-28T01:25:58.924Z,19.83
2022-10-28T01:28:50.240Z,19.82
2022-10-28T01:31:25.800Z,19.83
2022-10-28T01:34:14.175Z,19.82
2022-10-28T01:36:52.647Z,19.81
2022-10-28T01:39:43.660Z,19.81
2022-10-28T01:42:27.353Z,19.82
2022-10-28T01:45:12.205Z,19.81
2022-10-28T01:47:44.214Z,19.79
2022-10-28T01:50:38.496Z,19.80
2022-10-28T01:53:07.724Z,19.80
2022-10-28T01:55:37.000Z,19.79
2022-10-28T01:58:03.736Z,19.79
2022-10-28T02:00:31.628Z,19.79
2022-10-28T02:02:58.248Z,19.79
2022-10-28T02:05:41.501Z,19.79
2022-10-28T02:08:20.285Z,19.79
2022-10-28T02:11:03.057Z,19.78
2022-10-28T02:13:44.177Z,19.78
2022-10-28T02:16:10.617Z,19.78
2022-10-28T02:18:53.535Z,19.78
2022-10-28T02:21:25.242Z,19.77
2022-10-28T02:24:00.472Z,19.77
2022-10-28T02:26:41.963Z,19.78
2022-10-28T02:29:28.629Z,19.76
2022-10-28T02:31:57.556Z,19.78
2022-10-28T02:34:27.495Z,19.76
2022-10-28T02:36:54.803Z,19.77
2022-10-28T02:39:24.609Z,19.75
2022-10-28T02:41:54.459Z,19.75
2022-10-28T02:44:27.865Z,19.76
2022-10-28T02:46:54.845Z,19.74
2022-10-28T02:49:21.481Z,19.76
2022-10-28T02:51:56.151Z,19.75
2022-10-28T02:54:31.194Z,19.74
2022-10-28T02:57:01.408Z,19.74
2022-10-28T02:59:28.495Z,19.74
2022-10-28T03:01:55.230Z,19.73
2022-10-28T03:04:21.894Z,19.74
2022-10-28T03:06:48.468Z,19.73
2022-10-28T03:09:15.034Z,19.73
2022-10-28T03:11:41.615Z,19.72
2022-10-28T03:14:10.739Z,19.72
2022-10-28T03:16:39.978Z,19.72
2022-10-28T03:19:06.527Z,19.72
2022-10-28T03:21:33.280Z,19.71
2022-10-28T03:23:59.806Z,19.72
2022-10-28T03:26:26.384Z,19.71
2022-10-28T03:28:52.941Z,19.72
2022-10-28T03:31:19.625Z,19.70
2022-10-28T03:33:46.227Z,19.71
2022-10-28T03:36:12.768Z,19.71
2022-10-28T03:38:39.346Z,19.70
2022-10-28T03:41:05.922Z,19.69
2022-10-28T03:43:32.472Z,19.69
2022-10-28T03:45:59.024Z,19.69
2022-10-28T03:48:25.593Z,19.70
2022-10-28T03:50:55.022Z,19.69
2022-10-28T03:53:24.254Z,19.69
2022-10-28T03:55:56.486Z,19.71
2022-10-28T03:58:23.184Z,19.71
2022-10-28T04:00:50.373Z,19.71
2022-10-28T04:03:17.403Z,19.71
2022-10-28T04:05:43.962Z,19.71
2022-10-28T04:08:10.525Z,19.72
2022-10-28T04:10:37.235Z,19.72
2022-10-28T04:13:04.818Z,19.73
2022-10-28T04:15:31.553Z,19.74
2022-10-28T04:17:58.135Z,19.74
2022-10-28T04:20:25.087Z,19.73
2022-10-28T04:22:54.619Z,19.75
2022-10-28T04:25:24.490Z,19.75
2022-10-28T04:27:51.359Z,19.75
2022-10-28T04:30:18.195Z,19.75
2022-10-28T04:32:44.842Z,19.76
2022-10-28T04:35:11.784Z,19.76
2022-10-28T04:37:38.766Z,19.76
2022-10-28T04:40:06.100Z,19.76
2022-10-28T04:42:32.641Z,19.76
2022-10-28T04:45:01.882Z,19.76
2022-10-28T04:47:28.482Z,19.77
2022-10-28T04:49:57.946Z,19.77
2022-10-28T04:52:26.478Z,19.78
2022-10-28T04:54:53.103Z,19.78
2022-10-28T04:57:20.274Z,19.76
2022-10-28T04:59:47.190Z,19.71
2022-10-28T05:02:14.350Z,19.70
2022-10-28T05:04:41.015Z,19.68
2022-10-28T05:07:07.964Z,19.64
2022-10-28T05:09:34.747Z,19.60
2022-10-28T05:12:02.931Z,19.58
2022-10-28T05:14:30.037Z,19.57
2022-10-28T05:17:08.621Z,19.53
2022-10-28T05:19:37.925Z,19.37
2022-10-28T05:22:07.901Z,19.19
2022-10-28T05:24:34.640Z,19.07
2022-10-28T05:27:01.251Z,18.96
2022-10-28T05:29:32.274Z,18.83
2022-10-28T05:32:02.223Z,18.73
2022-10-28T05:34:28.891Z,18.64
2022-10-28T05:36:55.467Z,18.56
2022-10-28T05:39:22.031Z,18.52
2022-10-28T05:41:48.595Z,18.48
2022-10-28T05:44:15.150Z,18.42
2022-10-28T05:46:41.851Z,18.40
2022-10-28T05:49:11.422Z,18.36
2022-10-28T05:51:37.982Z,18.33
2022-10-28T05:54:04.798Z,18.33
2022-10-28T05:56:31.377Z,18.43
2022-10-28T05:58:58.030Z,18.53
2022-10-28T06:01:24.678Z,18.64
2022-10-28T06:03:51.711Z,18.75
2022-10-28T06:06:18.301Z,18.83
2022-10-28T06:08:45.114Z,18.87
2022-10-28T06:11:10.150Z,18.95
2022-10-28T06:13:36.708Z,19.00
2022-10-28T06:16:03.588Z,19.08
2022-10-28T06:18:30.184Z,19.14
2022-10-28T06:20:57.199Z,19.16
2022-10-28T06:23:24.493Z,19.18
2022-10-28T06:25:55.231Z,19.20
2022-10-28T06:28:21.855Z,19.22
2022-10-28T06:30:48.421Z,19.25
2022-10-28T06:33:15.017Z,19.29
2022-10-28T06:35:41.634Z,19.33
2022-10-28T06:38:09.582Z,19.40
2022-10-28T06:40:36.295Z,19.43
2022-10-28T06:43:04.187Z,19.45
2022-10-28T06:45:31.741Z,19.48
2022-10-28T06:48:03.988Z,19.48
2022-10-28T06:50:30.763Z,19.51
2022-10-28T06:52:57.518Z,19.52
2022-10-28T06:55:25.024Z,19.54
2022-10-28T06:57:51.901Z,19.56
2022-10-28T07:00:19.221Z,19.58
2022-10-28T07:02:50.958Z,19.60
2022-10-28T07:05:17.689Z,19.60
2022-10-28T07:07:44.307Z,19.60
2022-10-28T07:10:10.853Z,19.62
2022-10-28T07:12:37.538Z,19.63
2022-10-28T07:15:04.659Z,19.63
2022-10-28T07:17:31.413Z,19.63
2022-10-28T07:19:57.976Z,19.63
2022-10-28T07:22:25.815Z,19.65
2022-10-28T07:24:52.518Z,19.66
2022-10-28T07:27:19.136Z,19.67
2022-10-28T07:29:45.705Z,19.68
2022-10-28T07:32:12.372Z,19.68
2022-10-28T07:34:39.020Z,19.71
2022-10-28T07:37:06.204Z,19.71
2022-10-28T07:39:32.850Z,19.69
2022-10-28T07:42:02.593Z,19.71
2022-10-28T07:44:29.198Z,19.71
2022-10-28T07:46:58.117Z,19.71
2022-10-28T07:49:25.262Z,19.72
2022-10-28T07:51:51.850Z,19.71
2022-10-28T07:54:18.574Z,19.72
2022-10-28T07:56:45.235Z,19.72
2022-10-28T07:59:11.795Z,19.73
2022-10-28T08:01:38.460Z,19.74
2022-10-28T08:04:05.168Z,19.73
2022-10-28T08:06:31.732Z,19.74
2022-10-28T08:08:58.319Z,19.75
2022-10-28T08:11:25.018Z,19.76
2022-10-28T08:13:52.238Z,19.76
2022-10-28T08:16:18.973Z,19.76
2022-10-28T08:18:46.007Z,19.78
2022-10-28T08:21:13.269Z,19.79
2022-10-28T08:23:41.412Z,19.80
2022-10-28T08:26:08.129Z,19.81
2022-10-28T08:28:34.702Z,19.81
2022-10-28T08:31:09.801Z,19.80
2022-10-28T08:33:38.056Z,19.82
2022-10-28T08:36:05.492Z,19.82
2022-10-28T08:38:32.047Z,19.82
2022-10-28T08:41:04.415Z,19.82
2022-10-28T08:44:04.723Z,19.83
2022-10-28T08:46:37.506Z,19.83
2022-10-28T08:49:06.818Z,19.83
2022-10-28T08:51:42.585Z,19.85
2022-10-28T08:54:18.251Z,19.84
2022-10-28T08:56:46.213Z,19.84
2022-10-28T08:59:21.757Z,19.83
2022-10-28T09:01:59.786Z,19.82
2022-10-28T09:04:45.745Z,19.83
2022-10-28T09:07:21.820Z,19.84
2022-10-28T09:09:49.409Z,19.85
2022-10-28T09:12:23.260Z,19.85
2022-10-28T09:14:49.690Z,19.87
2022-10-28T09:18:12.062Z,19.87
2022-10-28T09:20:47.998Z,19.86
2022-10-28T09:23:24.881Z,19.88
2022-10-28T09:26:10.248Z,19.87
2022-10-28T09:29:09.032Z,19.88
2022-10-28T09:31:40.237Z,19.90
2022-10-28T09:34:13.498Z,19.90
2022-10-28T09:36:42.257Z,19.89
2022-10-28T09:39:23.975Z,19.89
2022-10-28T09:41:53.449Z,19.89
2022-10-28T09:44:42.209Z,19.88
2022-10-28T09:47:15.889Z,19.87
2022-10-28T09:49:42.485Z,19.89
2022-10-28T09:52:15.357Z,19.90
2022-10-28T09:54:45.026Z,19.90
2022-10-28T09:57:14.942Z,19.89
2022-10-28T09:59:43.821Z,19.91
2022-10-28T10:02:36.850Z,19.91
2022-10-28T10:05:03.666Z,19.92
2022-10-28T10:07:35.944Z,19.90
2022-10-28T10:10:06.673Z,19.92
2022-10-28T10:12:33.224Z,19.91
2022-10-28T10:14:59.847Z,19.92
2022-10-28T10:17:39.617Z,19.91
2022-10-28T10:20:10.361Z,19.91
2022-10-28T10:22:44.045Z,19.91
2022-10-28T10:25:19.751Z,19.92
2022-10-28T10:28:27.668Z,19.93
2022-10-28T10:31:21.147Z,19.94
2022-10-28T10:33:52.259Z,19.91
2022-10-28T10:36:23.218Z,19.90
2022-10-28T10:38:54.400Z,19.89
2022-10-28T10:41:34.521Z,19.91
2022-10-28T10:44:01.111Z,19.92
2022-10-28T10:46:28.096Z,19.91
2022-10-28T10:49:12.744Z,19.90
2022-10-28T10:51:42.895Z,19.91
2022-10-28T10:54:13.910Z,19.89
2022-10-28T10:56:40.495Z,19.91
2022-10-28T10:59:07.060Z,19.92
2022-10-28T11:01:38.590Z,19.91
2022-10-28T11:04:06.391Z,19.90
2022-10-28T11:06:36.048Z,19.90
2022-10-28T11:09:07.263Z,19.91
2022-10-28T11:11:36.711Z,19.91
2022-10-28T11:14:09.722Z,19.91
2022-10-28T11:16:56.204Z,19.91
2022-10-28T11:19:24.286Z,19.92
2022-10-28T11:22:16.835Z,19.92
2022-10-28T11:25:05.249Z,19.94
2022-10-28T11:28:04.434Z,19.94
2022-10-28T11:30:54.052Z,19.95
2022-10-28T11:33:42.423Z,19.97
2022-10-28T11:36:25.986Z,19.98
2022-10-28T11:39:12.141Z,19.98
2022-10-28T11:41:57.374Z,19.98
2022-10-28T11:44:35.965Z,20.00
2022-10-28T11:47:17.666Z,20.00
2022-10-28T11:50:16.589Z,19.99
2022-10-28T11:53:20.521Z,19.98
2022-10-28T11:56:16.379Z,19.99
2022-10-28T11:58:49.458Z,19.97
2022-10-28T12:01:18.688Z,19.97
2022-10-28T12:04:14.319Z,19.96
2022-10-28T12:07:05.719Z,19.95
2022-10-28T12:09:47.110Z,19.95
2022-10-28T12:12:31.075Z,19.95
2022-10-28T12:15:09.347Z,19.95
2022-10-28T12:17:41.221Z,19.94
2022-10-28T12:20:20.711Z,19.95
2022-10-28T12:22:58.212Z,19.94
2022-10-28T12:25:27.022Z,19.94
2022-10-28T12:28:07.958Z,19.93
2022-10-28T12:30:35.806Z,19.94
2022-10-28T12:33:07.145Z,19.94
2022-10-28T12:35:38.724Z,19.95
2022-10-28T12:38:15.337Z,19.93
2022-10-28T12:40:46.229Z,19.93
2022-10-28T12:43:15.707Z,19.93
2022-10-28T12:45:42.272Z,19.92
2022-10-28T12:48:27.436Z,19.93
2022-10-28T12:51:40.464Z,19.93
2022-10-28T12:54:23.981Z,19.92
2022-10-28T12:57:14.038Z,19.93
2022-10-28T12:59:43.176Z,19.93
2022-10-28T13:02:16.880Z,19.92
2022-10-28T13:04:43.546Z,19.92
2022-10-28T13:07:13.870Z,19.90
2022-10-28T13:09:54.845Z,19.91
2022-10-28T13:12:40.201Z,19.90
2022-10-28T13:15:32.233Z,19.89
2022-10-28T13:18:20.572Z,19.89
2022-10-28T13:20:47.686Z,19.88
2022-10-28T13:23:30.323Z,19.87
2022-10-28T13:26:25.097Z,19.87
2022-10-28T13:28:53.557Z,19.87
2022-10-28T13:31:20.496Z,19.85
2022-10-28T13:33:59.075Z,19.85
2022-10-28T13:36:27.701Z,19.86
2022-10-28T13:39:01.350Z,19.86
2022-10-28T13:41:28.990Z,19.85
2022-10-28T13:43:56.423Z,19.85
2022-10-28T13:47:00.863Z,19.84
2022-10-28T13:49:37.802Z,19.84
2022-10-28T13:52:17.667Z,19.84
2022-10-28T13:54:44.086Z,19.83
2022-10-28T13:57:25.978Z,19.83
2022-10-28T13:59:58.129Z,19.83
2022-10-28T14:02:38.545Z,19.83
2022-10-28T14:05:09.765Z,19.83
2022-10-28T14:07:38.488Z,19.81
2022-10-28T14:10:17.635Z,19.80
2022-10-28T14:12:57.845Z,19.80
2022-10-28T14:15:34.661Z,19.80
2022-10-28T14:18:10.349Z,19.81
2022-10-28T14:20:49.361Z,19.80
2022-10-28T14:23:22.006Z,19.81
2022-10-28T14:25:51.487Z,19.81
2022-10-28T14:28:29.957Z,19.80
2022-10-28T14:31:11.802Z,19.80
2022-10-28T14:33:44.373Z,19.80
2022-10-28T14:36:19.796Z,19.80
2022-10-28T14:39:23.935Z,19.80
2022-10-28T14:41:50.448Z,19.80
2022-10-28T14:44:19.815Z,19.80
2022-10-28T14:46:46.230Z,19.80
2022-10-28T14:49:21.751Z,19.80
2022-10-28T14:51:48.296Z,19.79
2022-10-28T14:54:22.984Z,19.79
2022-10-28T14:56:49.525Z,19.79
2022-10-28T14:59:19.194Z,19.80
2022-10-28T15:02:04.539Z,19.78
2022-10-28T15:04:31.289Z,19.79
2022-10-28T15:06:57.843Z,19.79
2022-10-28T15:09:28.416Z,19.79
2022-10-28T15:12:00.605Z,19.77
2022-10-28T15:14:38.956Z,19.77
2022-10-28T15:17:15.382Z,19.78
2022-10-28T15:19:42.208Z,19.78
2022-10-28T15:22:15.889Z,19.77
2022-10-28T15:24:46.180Z,19.77
2022-10-28T15:27:14.212Z,19.77
2022-10-28T15:29:41.918Z,19.78
2022-10-28T15:32:20.581Z,19.78
2022-10-28T15:34:47.656Z,19.78
2022-10-28T15:37:18.521Z,19.78
2022-10-28T15:39:49.316Z,19.77
2022-10-28T15:42:45.334Z,19.77
2022-10-28T15:45:19.438Z,19.76
2022-10-28T15:47:46.498Z,19.76
2022-10-28T15:50:16.005Z,19.76
2022-10-28T15:52:48.265Z,19.76
2022-10-28T15:55:35.916Z,19.76
2022-10-28T15:58:19.253Z,19.75
2022-10-28T16:00:52.757Z,19.74
2022-10-28T16:03:41.027Z,19.75
2022-10-28T16:06:19.705Z,19.74
2022-10-28T16:08:46.259Z,19.74
2022-10-28T16:11:17.778Z,19.73
2022-10-28T16:13:48.395Z,19.74
2022-10-28T16:16:16.511Z,19.74
2022-10-28T16:18:44.310Z,19.73
2022-10-28T16:21:19.144Z,19.74
2022-10-28T16:23:47.189Z,19.73
2022-10-28T16:26:13.744Z,19.73
2022-10-28T16:28:44.932Z,19.74
2022-10-28T16:31:15.738Z,19.73
2022-10-28T16:33:42.318Z,19.73
2022-10-28T16:36:09.027Z,19.73
2022-10-28T16:38:35.813Z,19.73
2022-10-28T16:41:03.002Z,19.73
2022-10-28T16:43:29.826Z,19.73
2022-10-28T16:45:57.618Z,19.73
2022-10-28T16:48:25.322Z,19.72
2022-10-28T16:51:05.587Z,19.72
2022-10-28T16:53:32.160Z,19.73
2022-10-28T16:56:01.290Z,19.71
2022-10-28T16:58:31.196Z,19.71
2022-10-28T17:00:57.898Z,19.70
2022-10-28T17:03:24.471Z,19.70
2022-10-28T17:05:51.024Z,19.70
2022-10-28T17:08:30.791Z,19.70
2022-10-28T17:11:04.720Z,19.71
2022-10-28T17:13:31.349Z,19.71
2022-10-28T17:15:57.924Z,19.69
2022-10-28T17:18:25.015Z,19.71
2022-10-28T17:21:01.763Z,19.70
2022-10-28T17:23:28.987Z,19.70
2022-10-28T17:25:59.767Z,19.69
2022-10-28T17:28:26.328Z,19.69
2022-10-28T17:30:52.962Z,19.69
2022-10-28T17:33:19.601Z,19.67
2022-10-28T17:35:46.252Z,19.68
2022-10-28T17:38:12.803Z,19.68
2022-10-28T17:40:39.348Z,19.68
2022-10-28T17:43:05.963Z,19.67
2022-10-28T17:45:32.643Z,19.67
2022-10-28T17:47:59.654Z,19.66
2022-10-28T17:50:26.235Z,19.68
2022-10-28T17:52:53.392Z,19.67
2022-10-28T17:55:20.220Z,19.68
2022-10-28T17:57:47.234Z,19.67
2022-10-28T18:00:14.558Z,19.68
2022-10-28T18:02:41.252Z,19.67
2022-10-28T18:05:08.209Z,19.66
2022-10-28T18:07:34.785Z,19.66
2022-10-28T18:10:01.347Z,19.66
2022-10-28T18:12:27.934Z,19.65
2022-10-28T18:14:54.490Z,19.66
2022-10-28T18:17:21.086Z,19.66
2022-10-28T18:19:47.637Z,19.65
2022-10-28T18:22:14.253Z,19.65
2022-10-28T18:24:40.835Z,19.65
2022-10-28T18:27:07.400Z,19.65
2022-10-28T18:29:33.954Z,19.65
2022-10-28T18:32:04.051Z,19.65
2022-10-28T18:34:31.387Z,19.64
2022-10-28T18:36:58.098Z,19.65
2022-10-28T18:39:24.658Z,19.65
2022-10-28T18:41:51.562Z,19.64
2022-10-28T18:44:21.605Z,19.64
2022-10-28T18:46:48.224Z,19.63
2022-10-28T18:49:14.900Z,19.64
2022-10-28T18:51:41.480Z,19.65
2022-10-28T18:54:08.059Z,19.64
2022-10-28T18:56:34.624Z,19.65
2022-10-28T18:59:02.526Z,19.64
2022-10-28T19:01:29.337Z,19.65
2022-10-28T19:03:59.865Z,19.64
2022-10-28T19:06:29.819Z,19.64
2022-10-28T19:08:57.038Z,19.64
2022-10-28T19:11:25.901Z,19.64
2022-10-28T19:13:52.453Z,19.63
2022-10-28T19:16:19.017Z,19.64
2022-10-28T19:18:45.578Z,19.63
2022-10-28T19:21:13.989Z,19.63
2022-10-28T19:23:40.683Z,19.63
2022-10-28T19:26:07.557Z,19.63
2022-10-28T19:28:39.406Z,19.62
2022-10-28T19:31:07.833Z,19.63
2022-10-28T19:33:34.441Z,19.62
2022-10-28T19:36:08.665Z,19.62
2022-10-28T19:38:36.545Z,19.62
2022-10-28T19:41:19.245Z,19.62
2022-10-28T19:43:46.026Z,19.62
2022-10-28T19:46:17.615Z,19.62
2022-10-28T19:48:49.397Z,19.62
2022-10-28T19:51:17.775Z,19.62
2022-10-28T19:53:53.119Z,19.62
2022-10-28T19:56:20.157Z,19.62
2022-10-28T19:58:57.153Z,19.62
2022-10-28T20:01:24.489Z,19.63
2022-10-28T20:03:51.439Z,19.62
2022-10-28T20:06:19.157Z,19.61
2022-10-28T20:08:49.393Z,19.62
2022-10-28T20:11:20.082Z,19.61
2022-10-28T20:13:57.028Z,19.61
2022-10-28T20:16:24.313Z,19.61
2022-10-28T20:18:50.921Z,19.61
2022-10-28T20:21:18.855Z,19.61
2022-10-28T20:23:47.040Z,19.60
2022-10-28T20:26:13.691Z,19.60
2022-10-28T20:28:40.261Z,19.59
2022-10-28T20:31:08.511Z,19.59
2022-10-28T20:33:42.157Z,19.59
2022-10-28T20:36:26.339Z,19.59
2022-10-28T20:39:03.170Z,19.58
2022-10-28T20:41:31.596Z,19.58
2022-10-28T20:43:58.314Z,19.58
2022-10-28T20:46:25.106Z,19.58
2022-10-28T20:48:54.018Z,19.57
2022-10-28T20:51:21.298Z,19.58
2022-10-28T20:53:47.849Z,19.57
2022-10-28T20:56:18.932Z,19.56
2022-10-28T20:58:45.581Z,19.57
2022-10-28T21:01:25.286Z,19.56
2022-10-28T21:03:55.944Z,19.56
2022-10-28T21:06:22.652Z,19.56
2022-10-28T21:08:49.230Z,19.55
2022-10-28T21:11:16.380Z,19.55
2022-10-28T21:13:43.185Z,19.56
2022-10-28T21:16:11.365Z,19.54
2022-10-28T21:18:38.668Z,19.53
2022-10-28T21:21:05.364Z,19.54
2022-10-28T21:23:31.916Z,19.53
2022-10-28T21:26:00.306Z,19.53
2022-10-28T21:28:28.710Z,19.54
2022-10-28T21:31:08.067Z,19.53
2022-10-28T21:33:35.751Z,19.52
2022-10-28T21:36:07.244Z,19.52
2022-10-28T21:38:34.036Z,19.52
2022-10-28T21:41:03.961Z,19.51
2022-10-28T21:43:31.901Z,19.52
2022-10-28T21:45:58.543Z,19.51
2022-10-28T21:48:25.435Z,19.52
2022-10-28T21:50:56.362Z,19.51
2022-10-28T21:53:23.351Z,19.51
2022-10-28T21:55:51.123Z,19.51
2022-10-28T21:58:18.235Z,19.51
2022-10-28T22:00:44.801Z,19.51
2022-10-28T22:03:11.530Z,19.50
2022-10-28T22:05:38.122Z,19.51
2022-10-28T22:08:05.301Z,19.49
2022-10-28T22:10:32.105Z,19.48
2022-10-28T22:12:58.656Z,19.48
2022-10-28T22:15:25.229Z,19.48
2022-10-28T22:17:51.988Z,19.49
2022-10-28T22:20:18.891Z,19.48
2022-10-28T22:22:45.460Z,19.48
2022-10-28T22:25:12.068Z,19.48
2022-10-28T22:27:38.655Z,19.47
2022-10-28T22:30:05.527Z,19.47
2022-10-28T22:32:32.085Z,19.47
2022-10-28T22:34:58.651Z,19.47
2022-10-28T22:37:25.258Z,19.45
2022-10-28T22:39:51.834Z,19.45
2022-10-28T22:42:18.391Z,19.46
2022-10-28T22:44:44.944Z,19.45
2022-10-28T22:47:11.547Z,19.44
2022-10-28T22:49:38.127Z,19.45
2022-10-28T22:52:04.766Z,19.44
2022-10-28T22:54:31.301Z,19.44
2022-10-28T22:56:57.940Z,19.44
2022-10-28T22:59:25.171Z,19.45
2022-10-28T23:01:53.315Z,19.44
2022-10-28T23:04:20.078Z,19.44
2022-10-28T23:06:46.759Z,19.44
2022-10-28T23:09:13.343Z,19.43
2022-10-28T23:11:39.885Z,19.43
2022-10-28T23:14:06.563Z,19.43
2022-10-28T23:16:33.118Z,19.43
2022-10-28T23:19:02.635Z,19.43
2022-10-28T23:21:29.171Z,19.43
2022-10-28T23:23:59.792Z,19.43
2022-10-28T23:26:27.879Z,19.42
2022-10-28T23:28:55.839Z,19.43
2022-10-28T23:31:22.858Z,19.42
2022-10-28T23:33:49.570Z,19.41
2022-10-28T23:36:16.245Z,19.42
2022-10-28T23:38:42.796Z,19.41
2022-10-28T23:41:12.278Z,19.40
2022-10-28T23:43:38.861Z,19.41
2022-10-28T23:46:05.460Z,19.41
2022-10-28T23:48:32.111Z,19.40
2022-10-28T23:50:58.724Z,19.40
2022-10-28T23:53:25.468Z,19.39
2022-10-28T23:55:52.141Z,19.39
2022-10-28T23:58:19.489Z,19.39
